Time;durP1;ratioP1;P1;durP2;ratioP2;P2;SDS_P1;SDS_P2;PMS_P1;PMS_P2;Temp;Humidity;BMP_temperature;BMP_pressure;BME280_temperature;BME280_humidity;BME280_pressure;Samples;Min_cycle;Max_cycle;Signal;HPM_P1;HPM_P2
2023/07/19 00:01:49;;;;;;;22.00;9.20;;;;;;;;;;6306524;22;20011;-64
2023/07/19 00:04:15;;;;;;;16.27;9.43;;;;;;;;;;6253625;22;20017;-65
2023/07/19 00:06:40;;;;;;;23.02;9.95;;;;;;;;;;6306858;22;20018;-65
2023/07/19 00:09:06;;;;;;;14.63;9.23;;;;;;;;;;6307318;22;20003;-65
2023/07/19 00:11:32;;;;;;;17.27;9.18;;;;;;;;;;6306825;22;20033;-65
2023/07/19 00:13:57;;;;;;;15.60;9.27;;;;;;;;;;6150384;22;20002;-65
2023/07/19 00:16:23;;;;;;;18.25;8.90;;;;;;;;;;6150351;22;20035;-65
2023/07/19 00:18:49;;;;;;;17.00;9.13;;;;;;;;;;6306695;22;20165;-66
2023/07/19 00:21:15;;;;;;;21.30;9.40;;;;;;;;;;6150970;22;20013;-65
2023/07/19 00:23:42;;;;;;;14.68;8.13;;;;;;;;;;6306420;22;20003;-65
2023/07/19 00:26:07;;;;;;;11.50;8.40;;;;;;;;;;6228002;22;20367;-65
2023/07/19 00:28:33;;;;;;;14.48;8.55;;;;;;;;;;6279256;22;19999;-65
2023/07/19 00:31:01;;;;;;;12.32;8.27;;;;;;;;;;6149009;22;20016;-65
2023/07/19 00:33:28;;;;;;;15.27;7.95;;;;;;;;;;6305727;22;20418;-65
2023/07/19 00:35:54;;;;;;;16.30;9.13;;;;;;;;;;6252869;22;20013;-66
2023/07/19 00:38:21;;;;;;;14.43;8.60;;;;;;;;;;6253111;22;20012;-65
2023/07/19 00:40:50;;;;;;;18.05;9.27;;;;;;;;;;6150316;23;20014;-66
2023/07/19 00:43:16;;;;;;;15.00;8.85;;;;;;;;;;6147847;23;20427;-65
2023/07/19 00:45:52;;;;;;;12.75;9.00;;;;;;;;;;6278180;22;20021;-65
2023/07/19 00:48:19;;;;;;;12.80;8.23;;;;;;;;;;6306258;22;20313;-65
2023/07/19 00:50:47;;;;;;;15.30;8.95;;;;;;;;;;6304312;22;20010;-66
2023/07/19 00:53:14;;;;;;;16.50;9.27;;;;;;;;;;6253258;22;20007;-65
2023/07/19 00:55:40;;;;;;;17.88;9.30;;;;;;;;;;6150027;22;19997;-65
2023/07/19 00:58:08;;;;;;;14.75;9.05;;;;;;;;;;6306188;22;20069;-64
2023/07/19 01:00:33;;;;;;;13.95;8.60;;;;;;;;;;6252646;22;20439;-65
2023/07/19 01:02:59;;;;;;;20.25;9.48;;;;;;;;;;6303749;22;20017;-65
2023/07/19 01:05:26;;;;;;;10.95;8.00;;;;;;;;;;6278069;22;20000;-65
2023/07/19 01:07:53;;;;;;;15.80;8.93;;;;;;;;;;6278159;22;20029;-65
2023/07/19 01:10:23;;;;;;;11.45;8.45;;;;;;;;;;6149915;23;20357;-65
2023/07/19 01:13:05;;;;;;;11.95;8.35;;;;;;;;;;6148166;23;20009;-65
2023/07/19 01:15:31;;;;;;;;;;;;;;;;;;6147978;23;20017;-64
2023/07/19 01:17:57;;;;;;;14.40;8.20;;;;;;;;;;6305496;22;20347;-65
2023/07/19 01:20:23;;;;;;;12.45;8.98;;;;;;;;;;6252630;22;20045;-65
2023/07/19 01:22:48;;;;;;;21.08;8.70;;;;;;;;;;6278540;22;20370;-65
2023/07/19 01:25:14;;;;;;;15.05;9.00;;;;;;;;;;6306175;22;20076;-66
2023/07/19 01:27:40;;;;;;;11.57;7.90;;;;;;;;;;6253637;22;20003;-65
2023/07/19 01:30:07;;;;;;;13.20;8.25;;;;;;;;;;6306375;22;20007;-65
2023/07/19 01:32:33;;;;;;;13.32;8.48;;;;;;;;;;6253147;22;20032;-65
2023/07/19 01:34:58;;;;;;;17.67;8.98;;;;;;;;;;6150442;22;20013;-65
2023/07/19 01:37:24;;;;;;;11.40;8.77;;;;;;;;;;6306070;22;20003;-65
2023/07/19 01:39:50;;;;;;;14.18;9.15;;;;;;;;;;6302761;22;20046;-64
2023/07/19 01:42:16;;;;;;;10.32;7.90;;;;;;;;;;6278270;22;20098;-64
2023/07/19 01:44:42;;;;;;;15.23;8.30;;;;;;;;;;6278354;22;20026;-64
2023/07/19 01:47:08;;;;;;;11.68;8.38;;;;;;;;;;6150290;22;20001;-65
2023/07/19 01:49:34;;;;;;;13.40;8.77;;;;;;;;;;6173109;23;20470;-65
2023/07/19 01:52:00;;;;;;;12.85;8.35;;;;;;;;;;6149789;23;20010;-65
2023/07/19 01:54:26;;;;;;;14.00;8.50;;;;;;;;;;6149941;23;20382;-65
2023/07/19 01:56:52;;;;;;;12.68;8.88;;;;;;;;;;6148403;23;20051;-65
2023/07/19 01:59:17;;;;;;;13.02;7.95;;;;;;;;;;6303858;22;20011;-65
2023/07/19 02:01:43;;;;;;;12.00;9.10;;;;;;;;;;6278034;22;20003;-65
2023/07/19 02:04:09;;;;;;;9.88;7.80;;;;;;;;;;6277616;22;20008;-65
2023/07/19 02:06:35;;;;;;;10.57;8.52;;;;;;;;;;6305567;22;20005;-65
2023/07/19 02:09:01;;;;;;;16.88;7.82;;;;;;;;;;6278028;22;20091;-65
2023/07/19 02:11:27;;;;;;;12.32;7.80;;;;;;;;;;6306286;22;19999;-65
2023/07/19 02:13:53;;;;;;;12.05;7.63;;;;;;;;;;6251806;22;20063;-65
2023/07/19 02:16:19;;;;;;;13.40;8.10;;;;;;;;;;6255534;22;20005;-65
2023/07/19 02:18:45;;;;;;;11.77;8.10;;;;;;;;;;6280076;22;20013;-65
2023/07/19 02:21:10;;;;;;;13.07;7.50;;;;;;;;;;6305645;22;20368;-65
2023/07/19 02:23:36;;;;;;;15.15;8.05;;;;;;;;;;6302310;22;20011;-65
2023/07/19 02:26:02;;;;;;;19.15;8.95;;;;;;;;;;6306561;22;20007;-66
2023/07/19 02:28:28;;;;;;;18.98;8.68;;;;;;;;;;6149386;22;20074;-66
2023/07/19 02:30:53;;;;;;;13.40;7.68;;;;;;;;;;6278713;22;20006;-65
2023/07/19 02:33:20;;;;;;;11.13;7.43;;;;;;;;;;6277292;22;20011;-65
2023/07/19 02:35:52;;;;;;;14.65;8.00;;;;;;;;;;6148290;22;20010;-66
2023/07/19 02:38:18;;;;;;;;;;;;;;;;;;6171333;22;20017;-65
2023/07/19 02:40:44;;;;;;;15.75;9.32;;;;;;;;;;6171603;22;19927;-65
2023/07/19 02:43:10;;;;;;;21.58;9.13;;;;;;;;;;6251530;22;20020;-65
2023/07/19 02:45:36;;;;;;;16.40;9.80;;;;;;;;;;6305413;22;20429;-65
2023/07/19 02:48:02;;;;;;;14.48;9.20;;;;;;;;;;6278061;22;20021;-65
2023/07/19 02:50:29;;;;;;;12.02;7.47;;;;;;;;;;6301982;22;20039;-65
2023/07/19 02:52:55;;;;;;;15.63;8.73;;;;;;;;;;6303520;22;20451;-65
2023/07/19 02:55:20;;;;;;;14.13;8.40;;;;;;;;;;6304586;22;20003;-65
2023/07/19 02:57:46;;;;;;;13.50;8.43;;;;;;;;;;6306051;22;20011;-65
2023/07/19 03:00:12;;;;;;;11.00;8.45;;;;;;;;;;6302850;22;20559;-65
2023/07/19 03:02:38;;;;;;;12.40;8.02;;;;;;;;;;6304896;22;20012;-65
2023/07/19 03:05:04;;;;;;;12.13;8.27;;;;;;;;;;6278378;22;20094;-65
2023/07/19 03:07:31;;;;;;;13.63;8.18;;;;;;;;;;6305451;22;20422;-65
2023/07/19 03:09:56;;;;;;;10.95;8.05;;;;;;;;;;6253637;22;20483;-65
2023/07/19 03:12:23;;;;;;;10.60;7.78;;;;;;;;;;6278334;22;20023;-65
2023/07/19 03:14:49;;;;;;;12.57;8.30;;;;;;;;;;6305637;22;20099;-65
2023/07/19 03:17:15;;;;;;;14.77;8.75;;;;;;;;;;6305653;22;20038;-65
2023/07/19 03:19:41;;;;;;;14.60;8.70;;;;;;;;;;6149920;23;19997;-65
2023/07/19 03:22:06;;;;;;;11.45;8.13;;;;;;;;;;6147786;23;20093;-65
2023/07/19 03:24:33;;;;;;;13.20;7.95;;;;;;;;;;6253700;22;20013;-65
2023/07/19 03:26:59;;;;;;;14.02;8.18;;;;;;;;;;6307543;22;20092;-65
2023/07/19 03:29:24;;;;;;;14.40;8.50;;;;;;;;;;6280115;22;20369;-65
2023/07/19 03:31:51;;;;;;;11.93;8.10;;;;;;;;;;6151052;22;20037;-65
2023/07/19 03:34:16;;;;;;;16.08;8.13;;;;;;;;;;6254211;22;20309;-65
2023/07/19 03:36:42;;;;;;;11.65;8.48;;;;;;;;;;6279440;22;20015;-66
2023/07/19 03:39:08;;;;;;;18.75;8.48;;;;;;;;;;6150003;22;20420;-65
2023/07/19 03:41:35;;;;;;;14.40;8.52;;;;;;;;;;6304737;22;20022;-64
2023/07/19 03:44:01;;;;;;;13.20;8.25;;;;;;;;;;6148119;23;20432;-65
2023/07/19 03:46:28;;;;;;;14.63;8.35;;;;;;;;;;6279108;22;20011;-65
2023/07/19 03:48:56;;;;;;;11.63;9.02;;;;;;;;;;6253471;22;20009;-65
2023/07/19 03:51:22;;;;;;;13.43;8.70;;;;;;;;;;6228057;22;20063;-66
2023/07/19 03:53:48;;;;;;;13.10;8.30;;;;;;;;;;6148595;23;20002;-65
2023/07/19 03:56:14;;;;;;;16.38;8.52;;;;;;;;;;6124614;23;20018;-66
2023/07/19 03:58:42;;;;;;;15.60;8.70;;;;;;;;;;6279740;22;20398;-65
2023/07/19 04:01:09;;;;;;;11.27;7.68;;;;;;;;;;6253470;22;20067;-65
2023/07/19 04:03:35;;;;;;;11.85;8.00;;;;;;;;;;6173167;22;20006;-65
2023/07/19 04:06:01;;;;;;;19.23;8.38;;;;;;;;;;6253086;22;20014;-66
2023/07/19 04:08:27;;;;;;;16.35;8.18;;;;;;;;;;6252811;22;20005;-64
2023/07/19 04:10:52;;;;;;;18.90;9.20;;;;;;;;;;6173334;23;20040;-65
2023/07/19 04:13:18;;;;;;;11.75;8.05;;;;;;;;;;6253136;22;20387;-66
2023/07/19 04:15:44;;;;;;;18.88;8.50;;;;;;;;;;6252777;22;20005;-65
2023/07/19 04:18:11;;;;;;;14.95;7.88;;;;;;;;;;6148477;22;20009;-65
2023/07/19 04:20:37;;;;;;;15.98;8.23;;;;;;;;;;6279090;22;20045;-66
2023/07/19 04:23:06;;;;;;;12.07;8.02;;;;;;;;;;6252603;22;20366;-65
2023/07/19 04:25:33;;;;;;;16.17;8.50;;;;;;;;;;6148762;23;20009;-65
2023/07/19 04:28:00;;;;;;;11.18;7.63;;;;;;;;;;6253520;22;20005;-65
2023/07/19 04:30:26;;;;;;;14.20;8.38;;;;;;;;;;6279322;22;20065;-65
2023/07/19 04:32:55;;;;;;;18.75;8.88;;;;;;;;;;6278835;22;20003;-65
2023/07/19 04:35:24;;;;;;;16.65;8.25;;;;;;;;;;6278489;22;20015;-65
2023/07/19 04:37:50;;;;;;;18.73;8.82;;;;;;;;;;6278362;22;20366;-65
2023/07/19 04:40:16;;;;;;;19.67;8.45;;;;;;;;;;6278688;22;20017;-65
2023/07/19 04:42:43;;;;;;;16.92;8.15;;;;;;;;;;6274477;22;20322;-65
2023/07/19 04:45:10;;;;;;;14.18;8.23;;;;;;;;;;6189201;22;20347;-65
2023/07/19 04:47:37;;;;;;;17.02;8.25;;;;;;;;;;6147056;23;20009;-65
2023/07/19 04:50:07;;;;;;;13.88;8.63;;;;;;;;;;6278625;22;20040;-66
2023/07/19 04:52:33;;;;;;;18.42;7.68;;;;;;;;;;6147788;23;20001;-64
2023/07/19 04:54:59;;;;;;;17.38;8.10;;;;;;;;;;6149870;23;20020;-65
2023/07/19 04:57:25;;;;;;;14.90;8.02;;;;;;;;;;6251331;22;20378;-67
2023/07/19 04:59:51;;;;;;;14.05;8.23;;;;;;;;;;6278216;22;20007;-65
2023/07/19 05:02:16;;;;;;;15.05;7.55;;;;;;;;;;6252533;22;20399;-66
2023/07/19 05:04:42;;;;;;;13.32;7.53;;;;;;;;;;6149876;22;20013;-66
2023/07/19 05:07:08;;;;;;;13.38;8.10;;;;;;;;;;6251874;22;20017;-65
2023/07/19 05:09:34;;;;;;;15.25;7.53;;;;;;;;;;6304098;22;20018;-66
2023/07/19 05:12:01;;;;;;;15.43;7.53;;;;;;;;;;6145979;23;20009;-65
2023/07/19 05:14:28;;;;;;;15.05;7.68;;;;;;;;;;6277842;22;20011;-65
2023/07/19 05:16:53;;;;;;;11.57;7.35;;;;;;;;;;6251347;22;20505;-66
2023/07/19 05:19:20;;;;;;;16.83;7.53;;;;;;;;;;6147117;23;20024;-66
2023/07/19 05:21:46;;;;;;;13.30;6.90;;;;;;;;;;6146862;23;20009;-65
2023/07/19 05:24:12;;;;;;;19.27;7.40;;;;;;;;;;6149569;22;20013;-66
2023/07/19 05:26:39;;;;;;;20.83;7.50;;;;;;;;;;6252331;22;20001;-65
2023/07/19 05:29:05;;;;;;;16.58;7.45;;;;;;;;;;6149510;22;20013;-65
2023/07/19 05:31:31;;;;;;;15.13;7.38;;;;;;;;;;6149460;23;20006;-67
2023/07/19 05:33:57;;;;;;;12.07;7.85;;;;;;;;;;6149119;22;20008;-67
2023/07/19 05:36:23;;;;;;;18.02;7.45;;;;;;;;;;6304041;22;20023;-66
2023/07/19 05:38:48;;;;;;;16.02;7.55;;;;;;;;;;6252661;22;20009;-66
2023/07/19 05:41:14;;;;;;;13.80;6.85;;;;;;;;;;6304399;22;20004;-65
2023/07/19 05:43:40;;;;;;;12.65;7.45;;;;;;;;;;6149477;23;20010;-66
2023/07/19 05:46:09;;;;;;;20.08;7.60;;;;;;;;;;6305267;22;20436;-65
2023/07/19 05:48:35;;;;;;;15.32;7.05;;;;;;;;;;6304595;22;20077;-64
2023/07/19 05:51:04;;;;;;;15.60;6.97;;;;;;;;;;6305448;22;20023;-64
2023/07/19 05:53:30;;;;;;;22.58;7.72;;;;;;;;;;6148687;23;20008;-65
2023/07/19 05:55:56;;;;;;;16.23;7.10;;;;;;;;;;6305157;22;20082;-65
2023/07/19 05:58:22;;;;;;;14.68;6.25;;;;;;;;;;6148743;23;20018;-65
2023/07/19 06:00:49;;;;;;;17.13;6.45;;;;;;;;;;6304805;22;20018;-66
2023/07/19 06:03:16;;;;;;;9.60;6.18;;;;;;;;;;6149481;22;20016;-66
2023/07/19 06:05:44;;;;;;;11.23;6.38;;;;;;;;;;6149506;22;20009;-65
2023/07/19 06:08:11;;;;;;;12.20;5.88;;;;;;;;;;6149001;22;20013;-65
2023/07/19 06:10:38;;;;;;;9.10;6.30;;;;;;;;;;6149351;23;20005;-65
2023/07/19 06:13:04;;;;;;;10.40;6.28;;;;;;;;;;6305131;22;20106;-67
2023/07/19 06:15:33;;;;;;;20.67;6.70;;;;;;;;;;6151964;22;20068;-67
2023/07/19 06:18:00;;;;;;;14.43;6.70;;;;;;;;;;6149434;23;20006;-66
2023/07/19 06:20:26;;;;;;;20.17;6.32;;;;;;;;;;6148785;23;20001;-66
2023/07/19 06:22:51;;;;;;;11.68;5.70;;;;;;;;;;6148739;23;20450;-68
2023/07/19 06:25:17;;;;;;;9.68;6.68;;;;;;;;;;6148984;22;20041;-66
2023/07/19 06:27:43;;;;;;;14.65;6.55;;;;;;;;;;6305291;22;20011;-66
2023/07/19 06:30:10;;;;;;;16.02;6.70;;;;;;;;;;6148624;22;20423;-66
2023/07/19 06:32:36;;;;;;;9.02;6.07;;;;;;;;;;6148373;23;20031;-66
2023/07/19 06:35:03;;;;;;;11.13;5.32;;;;;;;;;;6148661;22;20017;-66
2023/07/19 06:37:29;;;;;;;24.65;5.90;;;;;;;;;;6148760;23;20060;-66
2023/07/19 06:39:54;;;;;;;11.05;5.95;;;;;;;;;;6149143;22;19997;-67
2023/07/19 06:42:20;;;;;;;12.63;5.70;;;;;;;;;;6304523;22;20433;-66
2023/07/19 06:44:47;;;;;;;13.48;6.30;;;;;;;;;;6304515;22;19999;-65
2023/07/19 06:47:14;;;;;;;11.55;5.88;;;;;;;;;;6277987;22;20093;-66
2023/07/19 06:49:40;;;;;;;8.68;5.43;;;;;;;;;;6304440;22;20003;-66
2023/07/19 06:52:07;;;;;;;11.68;5.70;;;;;;;;;;6304396;22;20011;-65
2023/07/19 06:54:32;;;;;;;12.18;6.20;;;;;;;;;;6304368;22;20009;-65
2023/07/19 06:56:58;;;;;;;11.82;5.75;;;;;;;;;;6305325;22;20057;-66
2023/07/19 06:59:24;;;;;;;9.02;5.40;;;;;;;;;;6306638;22;20084;-67
2023/07/19 07:01:49;;;;;;;11.25;5.60;;;;;;;;;;6306898;22;20078;-67
2023/07/19 07:04:15;;;;;;;9.02;5.13;;;;;;;;;;6306676;22;20052;-66
2023/07/19 07:06:41;;;;;;;10.57;5.38;;;;;;;;;;6150500;22;20063;-66
2023/07/19 07:09:07;;;;;;;7.15;5.07;;;;;;;;;;6148929;23;20051;-67
2023/07/19 07:11:33;;;;;;;10.25;5.20;;;;;;;;;;6149759;23;20388;-66
2023/07/19 07:13:58;;;;;;;7.88;5.40;;;;;;;;;;6306350;22;20388;-67
2023/07/19 07:16:24;;;;;;;10.10;5.50;;;;;;;;;;6306624;22;20374;-67
2023/07/19 07:18:50;;;;;;;12.98;5.57;;;;;;;;;;6150150;22;20009;-66
2023/07/19 07:21:15;;;;;;;9.93;5.35;;;;;;;;;;6306446;22;20018;-66
2023/07/19 07:23:41;;;;;;;15.63;5.43;;;;;;;;;;6306108;22;20260;-67
2023/07/19 07:26:07;;;;;;;11.20;5.40;;;;;;;;;;6149898;22;20320;-68
2023/07/19 07:28:33;;;;;;;10.27;5.07;;;;;;;;;;6149787;23;20082;-67
2023/07/19 07:31:05;;;;;;;6.63;4.90;;;;;;;;;;6149987;22;20036;-67
2023/07/19 07:33:31;;;;;;;7.55;4.90;;;;;;;;;;6149614;23;20036;-67
2023/07/19 07:35:57;;;;;;;11.18;5.38;;;;;;;;;;6306253;22;19995;-68
2023/07/19 07:38:23;;;;;;;8.18;4.57;;;;;;;;;;6305751;22;20010;-67
2023/07/19 07:40:48;;;;;;;8.68;5.68;;;;;;;;;;6150107;22;20005;-69
2023/07/19 07:43:14;;;;;;;9.70;5.72;;;;;;;;;;6150126;22;20080;-67
2023/07/19 07:45:40;;;;;;;10.30;5.80;;;;;;;;;;6305908;22;20482;-67
2023/07/19 07:48:06;;;;;;;11.98;5.45;;;;;;;;;;6306852;22;20011;-67
2023/07/19 07:50:31;;;;;;;9.48;5.03;;;;;;;;;;6305957;22;19999;-67
2023/07/19 07:52:57;;;;;;;14.98;7.30;;;;;;;;;;6305932;22;20007;-66
2023/07/19 07:55:22;;;;;;;13.23;5.40;;;;;;;;;;6150301;23;20012;-65
2023/07/19 07:57:48;;;;;;;10.27;5.25;;;;;;;;;;6306675;22;20015;-65
2023/07/19 08:00:15;;;;;;;8.05;5.10;;;;;;;;;;6149827;23;20074;-66
2023/07/19 08:02:40;;;;;;;13.45;5.72;;;;;;;;;;6304756;22;20015;-67
2023/07/19 08:05:06;;;;;;;10.38;4.82;;;;;;;;;;6306481;22;20298;-66
2023/07/19 08:07:32;;;;;;;8.88;5.38;;;;;;;;;;6304329;22;20123;-66
2023/07/19 08:09:58;;;;;;;8.65;5.30;;;;;;;;;;6278274;22;20003;-66
2023/07/19 08:12:24;;;;;;;8.10;5.07;;;;;;;;;;6305796;22;20456;-66
2023/07/19 08:14:50;;;;;;;8.73;5.30;;;;;;;;;;6149410;22;20006;-66
2023/07/19 08:17:16;;;;;;;9.23;4.70;;;;;;;;;;6149450;22;20010;-67
2023/07/19 08:19:41;;;;;;;9.80;5.25;;;;;;;;;;6305804;22;20129;-67
2023/07/19 08:22:22;;;;;;;8.07;4.15;;;;;;;;;;6306002;22;20015;-67
2023/07/19 08:24:48;;;;;;;9.88;4.93;;;;;;;;;;6306166;22;20158;-67
2023/07/19 08:27:14;;;;;;;7.97;4.40;;;;;;;;;;6149594;22;20068;-66
2023/07/19 08:29:39;;;;;;;7.75;4.68;;;;;;;;;;6305951;22;20017;-67
2023/07/19 08:32:05;;;;;;;6.80;4.43;;;;;;;;;;6278187;22;19999;-67
2023/07/19 08:34:31;;;;;;;10.98;5.32;;;;;;;;;;6305981;22;20034;-66
2023/07/19 08:36:56;;;;;;;10.70;5.22;;;;;;;;;;6305716;22;20006;-66
2023/07/19 08:39:23;;;;;;;6.82;4.88;;;;;;;;;;6149598;23;20017;-67
2023/07/19 08:41:49;;;;;;;8.20;5.10;;;;;;;;;;6305108;22;20018;-67
2023/07/19 08:44:16;;;;;;;7.68;5.47;;;;;;;;;;6148950;22;20010;-67
2023/07/19 08:46:43;;;;;;;7.28;4.72;;;;;;;;;;6149085;22;20002;-66
2023/07/19 08:49:09;;;;;;;8.23;4.57;;;;;;;;;;6149466;22;20009;-67
2023/07/19 08:51:38;;;;;;;7.65;4.30;;;;;;;;;;6149277;22;20100;-67
2023/07/19 08:54:04;;;;;;;7.03;4.50;;;;;;;;;;6149113;22;20001;-65
2023/07/19 08:56:31;;;;;;;9.45;4.80;;;;;;;;;;6149822;22;20016;-67
2023/07/19 08:58:57;;;;;;;10.98;3.72;;;;;;;;;;6149447;23;20021;-66
2023/07/19 09:01:22;;;;;;;6.63;4.35;;;;;;;;;;6149318;23;20013;-67
2023/07/19 09:03:48;;;;;;;5.53;3.95;;;;;;;;;;6305470;22;20007;-66
2023/07/19 09:06:24;;;;;;;10.48;4.72;;;;;;;;;;6148952;23;20083;-67
2023/07/19 09:08:52;;;;;;;7.00;4.45;;;;;;;;;;6149415;23;20084;-66
2023/07/19 09:11:21;;;;;;;12.23;4.78;;;;;;;;;;6148204;23;20020;-67
2023/07/19 09:13:53;;;;;;;11.65;5.18;;;;;;;;;;6150574;23;20368;-67
2023/07/19 09:16:32;;;;;;;9.38;4.45;;;;;;;;;;6149650;23;20021;-66
2023/07/19 09:19:00;;;;;;;9.13;5.05;;;;;;;;;;6149436;22;20006;-67
2023/07/19 09:21:46;;;;;;;7.70;4.72;;;;;;;;;;6305442;22;20003;-66
2023/07/19 09:24:14;;;;;;;6.57;4.85;;;;;;;;;;6305175;22;20347;-66
2023/07/19 09:26:56;;;;;;;7.15;4.88;;;;;;;;;;6305202;22;20088;-66
2023/07/19 09:29:23;;;;;;;7.45;5.25;;;;;;;;;;6149295;23;20014;-66
2023/07/19 09:32:07;;;;;;;5.80;4.50;;;;;;;;;;6149073;23;20012;-67
2023/07/19 09:34:37;;;;;;;10.98;5.30;;;;;;;;;;6149484;22;20408;-65
2023/07/19 09:37:03;;;;;;;11.45;5.50;;;;;;;;;;6149556;23;20010;-66
2023/07/19 09:39:30;;;;;;;8.50;4.78;;;;;;;;;;6149644;23;20352;-67
2023/07/19 09:42:00;;;;;;;8.60;4.70;;;;;;;;;;6149307;23;20017;-66
2023/07/19 09:44:26;;;;;;;8.82;4.90;;;;;;;;;;6148522;23;20072;-66
2023/07/19 09:46:53;;;;;;;7.55;5.18;;;;;;;;;;6305122;22;20076;-66
2023/07/19 09:49:19;;;;;;;8.00;4.55;;;;;;;;;;6304788;22;20066;-67
2023/07/19 09:51:47;;;;;;;11.40;5.30;;;;;;;;;;6148489;22;20309;-66
2023/07/19 09:54:14;;;;;;;10.77;5.28;;;;;;;;;;6148608;23;20055;-66
2023/07/19 09:56:43;;;;;;;7.75;4.88;;;;;;;;;;6304885;22;20010;-66
2023/07/19 09:59:15;;;;;;;9.15;4.82;;;;;;;;;;6304821;22;20011;-66
2023/07/19 10:01:41;;;;;;;;;;;;;;;;;;6149632;23;20037;-67
2023/07/19 10:04:28;;;;;;;8.95;5.15;;;;;;;;;;6149334;22;19923;-66
2023/07/19 10:07:20;;;;;;;8.60;4.30;;;;;;;;;;6149336;22;20005;-66
2023/07/19 10:09:49;;;;;;;7.88;5.03;;;;;;;;;;6142536;23;20324;-65
2023/07/19 10:12:15;;;;;;;7.63;4.68;;;;;;;;;;6149277;23;20015;-67
2023/07/19 10:14:40;;;;;;;8.38;4.70;;;;;;;;;;6149132;22;20009;-67
2023/07/19 10:17:06;;;;;;;7.95;4.38;;;;;;;;;;6305221;22;20057;-66
2023/07/19 10:19:32;;;;;;;6.78;4.28;;;;;;;;;;6305233;22;20057;-67
2023/07/19 10:22:06;;;;;;;8.50;4.85;;;;;;;;;;6305078;22;19995;-66
2023/07/19 10:24:35;;;;;;;7.32;4.40;;;;;;;;;;6149172;22;20073;-68
2023/07/19 10:27:05;;;;;;;7.47;4.53;;;;;;;;;;6149405;23;20458;-67
2023/07/19 10:29:39;;;;;;;5.78;4.50;;;;;;;;;;6149333;23;20096;-67
2023/07/19 10:32:07;;;;;;;6.35;4.70;;;;;;;;;;6305812;22;20015;-67
2023/07/19 10:34:32;;;;;;;7.78;4.80;;;;;;;;;;6150368;22;20002;-67
2023/07/19 10:37:02;;;;;;;6.22;4.50;;;;;;;;;;6149766;22;20109;-66
2023/07/19 10:39:29;;;;;;;8.00;5.20;;;;;;;;;;6307088;22;20003;-66
2023/07/19 10:41:55;;;;;;;6.45;4.50;;;;;;;;;;6307292;22;20010;-67
2023/07/19 10:44:21;;;;;;;5.25;4.40;;;;;;;;;;6279866;22;20074;-66
2023/07/19 10:46:47;;;;;;;5.82;4.15;;;;;;;;;;6307286;22;20076;-66
2023/07/19 10:49:13;;;;;;;7.05;4.38;;;;;;;;;;6306926;22;20105;-67
2023/07/19 10:51:39;;;;;;;7.90;6.00;;;;;;;;;;6307340;22;20307;-66
2023/07/19 10:54:06;;;;;;;8.10;4.72;;;;;;;;;;6150300;22;20006;-67
2023/07/19 10:56:32;;;;;;;5.88;4.22;;;;;;;;;;6306666;22;20007;-66
2023/07/19 10:58:59;;;;;;;5.60;4.32;;;;;;;;;;6150117;22;20025;-67
2023/07/19 11:01:28;;;;;;;8.13;4.65;;;;;;;;;;6150422;22;20001;-66
2023/07/19 11:04:00;;;;;;;6.97;4.53;;;;;;;;;;6306989;22;20068;-67
2023/07/19 11:06:26;;;;;;;7.17;4.33;;;;;;;;;;6306825;22;20007;-67
2023/07/19 11:08:51;;;;;;;8.57;5.03;;;;;;;;;;6148972;22;20101;-66
2023/07/19 11:11:17;;;;;;;11.02;4.57;;;;;;;;;;6307152;22;20011;-67
2023/07/19 11:13:45;;;;;;;11.23;4.35;;;;;;;;;;6306912;22;19995;-67
2023/07/19 11:16:11;;;;;;;7.50;5.80;;;;;;;;;;6307051;22;20061;-67
2023/07/19 11:18:38;;;;;;;6.10;4.35;;;;;;;;;;6150937;22;20009;-67
2023/07/19 11:21:04;;;;;;;5.82;3.95;;;;;;;;;;6307260;22;20014;-68
2023/07/19 11:23:31;;;;;;;8.65;3.90;;;;;;;;;;6305162;22;20003;-67
2023/07/19 11:26:10;;;;;;;8.45;4.32;;;;;;;;;;6306695;22;20030;-67
2023/07/19 11:28:42;;;;;;;8.93;4.30;;;;;;;;;;6307285;22;20015;-66
2023/07/19 11:31:08;;;;;;;7.25;4.50;;;;;;;;;;6307111;22;20264;-67
2023/07/19 11:33:36;;;;;;;4.78;4.03;;;;;;;;;;6147620;22;20004;-66
2023/07/19 11:36:10;;;;;;;7.03;4.50;;;;;;;;;;6306311;22;20050;-67
2023/07/19 11:38:38;;;;;;;6.95;4.40;;;;;;;;;;6149490;22;20017;-66
2023/07/19 11:41:04;;;;;;;8.60;4.85;;;;;;;;;;6149041;23;20017;-66
2023/07/19 11:43:30;;;;;;;10.32;4.40;;;;;;;;;;6303643;22;20164;-65
2023/07/19 11:45:56;;;;;;;5.78;4.32;;;;;;;;;;6306677;22;20011;-66
2023/07/19 11:48:22;;;;;;;7.25;4.55;;;;;;;;;;6149816;22;20482;-66
2023/07/19 11:50:48;;;;;;;9.55;4.25;;;;;;;;;;6306413;22;20003;-66
2023/07/19 11:53:14;;;;;;;7.25;4.78;;;;;;;;;;6149314;22;20033;-66
2023/07/19 11:55:39;;;;;;;7.20;4.40;;;;;;;;;;6149377;23;20001;-66
2023/07/19 11:58:06;;;;;;;7.35;4.47;;;;;;;;;;6306680;22;20008;-66
2023/07/19 12:00:32;;;;;;;8.82;4.55;;;;;;;;;;6148668;22;20014;-67
2023/07/19 12:03:00;;;;;;;7.65;4.30;;;;;;;;;;6148684;23;20061;-67
2023/07/19 12:05:26;;;;;;;9.75;4.80;;;;;;;;;;6150053;23;19997;-65
2023/07/19 12:07:52;;;;;;;10.85;4.15;;;;;;;;;;6150362;23;20086;-65
2023/07/19 12:10:19;;;;;;;6.68;4.28;;;;;;;;;;6149356;23;20012;-67
2023/07/19 12:12:50;;;;;;;6.57;4.00;;;;;;;;;;6149745;23;20439;-68
2023/07/19 12:15:17;;;;;;;6.28;4.50;;;;;;;;;;6149647;23;20009;-66
2023/07/19 12:17:43;;;;;;;5.82;4.22;;;;;;;;;;6150120;23;20017;-67
2023/07/19 12:20:10;;;;;;;6.18;4.40;;;;;;;;;;6149220;22;20059;-66
2023/07/19 12:22:38;;;;;;;6.25;4.38;;;;;;;;;;6149777;23;20075;-67
2023/07/19 12:25:04;;;;;;;4.95;4.22;;;;;;;;;;6149641;23;20123;-67
2023/07/19 12:27:30;;;;;;;5.45;4.20;;;;;;;;;;6149403;23;20005;-66
2023/07/19 12:29:58;;;;;;;7.47;4.53;;;;;;;;;;6149862;23;20017;-66
2023/07/19 12:32:27;;;;;;;5.57;3.90;;;;;;;;;;6149356;23;20006;-67
2023/07/19 12:34:54;;;;;;;7.57;4.20;;;;;;;;;;6306004;22;20029;-67
2023/07/19 12:37:20;;;;;;;6.22;4.10;;;;;;;;;;6148431;22;20012;-67
2023/07/19 12:39:45;;;;;;;6.38;4.30;;;;;;;;;;6306169;22;20007;-67
2023/07/19 12:42:12;;;;;;;7.32;4.20;;;;;;;;;;6305294;22;20143;-66
2023/07/19 12:44:38;;;;;;;5.05;4.03;;;;;;;;;;6305199;22;20091;-67
2023/07/19 12:47:05;;;;;;;7.40;4.25;;;;;;;;;;6306071;22;20003;-67
2023/07/19 12:49:31;;;;;;;5.75;4.18;;;;;;;;;;6305010;22;20086;-67
2023/07/19 12:51:57;;;;;;;6.47;4.18;;;;;;;;;;6304916;22;20095;-67
2023/07/19 12:54:23;;;;;;;7.15;3.97;;;;;;;;;;6305662;22;20453;-67
2023/07/19 12:56:48;;;;;;;5.20;4.20;;;;;;;;;;6149429;22;20021;-68
2023/07/19 12:59:14;;;;;;;5.43;4.32;;;;;;;;;;6305446;22;20022;-66
2023/07/19 13:01:40;;;;;;;6.97;4.43;;;;;;;;;;6305140;22;20065;-68
2023/07/19 13:04:07;;;;;;;5.97;3.92;;;;;;;;;;6305186;22;20046;-67
2023/07/19 13:06:33;;;;;;;5.90;4.30;;;;;;;;;;6305622;22;20003;-67
2023/07/19 13:08:59;;;;;;;5.63;4.15;;;;;;;;;;6305925;22;20004;-67
2023/07/19 13:11:24;;;;;;;6.47;4.07;;;;;;;;;;6304994;22;20326;-66
2023/07/19 13:13:50;;;;;;;6.50;3.80;;;;;;;;;;6305821;22;20007;-67
2023/07/19 13:16:17;;;;;;;9.55;3.88;;;;;;;;;;6278019;22;20381;-67
2023/07/19 13:18:44;;;;;;;6.18;4.03;;;;;;;;;;6304823;22;20467;-66
2023/07/19 13:21:11;;;;;;;7.97;3.97;;;;;;;;;;6149852;22;20001;-68
2023/07/19 13:23:38;;;;;;;8.15;4.25;;;;;;;;;;6149238;23;20032;-67
2023/07/19 13:26:03;;;;;;;7.70;4.15;;;;;;;;;;6148803;22;20419;-67
2023/07/19 13:28:29;;;;;;;6.20;4.30;;;;;;;;;;6305367;22;20011;-68
2023/07/19 13:30:56;;;;;;;7.88;4.05;;;;;;;;;;6305925;22;20358;-67
2023/07/19 13:33:24;;;;;;;10.10;4.32;;;;;;;;;;6305586;22;20019;-68
2023/07/19 13:35:51;;;;;;;7.85;4.15;;;;;;;;;;6305536;22;20003;-67
2023/07/19 13:38:18;;;;;;;8.00;4.43;;;;;;;;;;6305683;22;20089;-67
2023/07/19 13:40:43;;;;;;;5.68;4.45;;;;;;;;;;6305611;22;20007;-67
2023/07/19 13:43:10;;;;;;;7.47;4.45;;;;;;;;;;6305757;22;20018;-66
2023/07/19 13:45:37;;;;;;;5.75;4.22;;;;;;;;;;6150145;22;20012;-67
2023/07/19 13:48:03;;;;;;;7.68;4.20;;;;;;;;;;6305725;22;20400;-68
2023/07/19 13:50:28;;;;;;;6.00;3.88;;;;;;;;;;6305823;22;20011;-67
2023/07/19 13:52:54;;;;;;;5.55;4.10;;;;;;;;;;6305713;22;20003;-67
2023/07/19 13:55:20;;;;;;;6.88;4.45;;;;;;;;;;6305413;22;20018;-67
2023/07/19 13:57:46;;;;;;;6.90;4.10;;;;;;;;;;6149648;22;20108;-67
2023/07/19 14:00:12;;;;;;;7.00;4.03;;;;;;;;;;6149620;23;20009;-67
2023/07/19 14:02:38;;;;;;;7.35;4.35;;;;;;;;;;6148932;23;20009;-66
2023/07/19 14:05:08;;;;;;;7.82;4.38;;;;;;;;;;6305432;22;20090;-67
2023/07/19 14:07:34;;;;;;;9.20;4.40;;;;;;;;;;6305009;22;20007;-66
2023/07/19 14:10:01;;;;;;;4.60;3.90;;;;;;;;;;6305459;22;20012;-66
2023/07/19 14:12:26;;;;;;;7.45;4.07;;;;;;;;;;6305763;22;20082;-67
2023/07/19 14:14:54;;;;;;;7.43;3.83;;;;;;;;;;6305644;22;20429;-66
2023/07/19 14:17:20;;;;;;;8.68;4.57;;;;;;;;;;6305578;22;20014;-66
2023/07/19 14:19:45;;;;;;;7.47;4.53;;;;;;;;;;6150153;22;20010;-66
2023/07/19 14:22:11;;;;;;;4.90;4.40;;;;;;;;;;6305593;22;20341;-66
2023/07/19 14:24:37;;;;;;;7.35;4.22;;;;;;;;;;6304833;22;20345;-67
2023/07/19 14:27:03;;;;;;;10.02;4.40;;;;;;;;;;6305512;22;20072;-66
2023/07/19 14:29:29;;;;;;;7.60;4.13;;;;;;;;;;6149466;22;20288;-66
2023/07/19 14:31:54;;;;;;;7.18;4.43;;;;;;;;;;6277214;22;20006;-66
2023/07/19 14:34:21;;;;;;;7.60;4.38;;;;;;;;;;6305432;22;19995;-67